Time;durP1;ratioP1;P1;durP2;ratioP2;P2;SDS_P1;SDS_P2;PMS_P1;PMS_P2;Temp;Humidity;BMP_temperature;BMP_pressure;BME280_temperature;BME280_humidity;BME280_pressure;Samples;Min_cycle;Max_cycle;Signal;HPM_P1;HPM_P2
2022/05/18 00:02:17;;;;;;;6.33;1.50;;;;;;;15.62;100.00;101435.22;1847693;77;21073;-74
2022/05/18 00:04:45;;;;;;;4.95;1.55;;;;;;;15.79;100.00;101439.00;1848265;78;21093;-74
2022/05/18 00:07:12;;;;;;;6.33;1.52;;;;;;;15.88;100.00;101434.20;1847845;76;21124;-74
2022/05/18 00:09:39;;;;;;;4.25;1.17;;;;;;;15.92;100.00;101430.70;1848225;76;21484;-74
2022/05/18 00:12:08;;;;;;;4.67;1.50;;;;;;;15.85;100.00;101423.84;1847957;78;21039;-73
2022/05/18 00:14:35;;;;;;;4.78;1.45;;;;;;;15.75;100.00;101429.53;1843558;76;21163;-73
2022/05/18 00:17:04;;;;;;;11.38;1.80;;;;;;;15.84;100.00;101425.56;1847824;76;21687;-74
2022/05/18 00:19:33;;;;;;;3.15;1.52;;;;;;;15.73;100.00;101421.77;1848357;76;21082;-73
2022/05/18 00:22:01;;;;;;;5.53;1.17;;;;;;;15.67;100.00;101424.38;1847821;77;21230;-74
2022/05/18 00:24:28;;;;;;;3.22;1.10;;;;;;;15.66;100.00;101435.62;1848019;78;21151;-74
2022/05/18 00:26:56;;;;;;;3.70;1.50;;;;;;;15.59;100.00;101433.52;1848156;76;21036;-74
2022/05/18 00:29:23;;;;;;;1.50;0.80;;;;;;;15.42;100.00;101446.97;1848095;78;21158;-74
2022/05/18 00:31:51;;;;;;;3.72;1.47;;;;;;;15.50;100.00;101444.36;1821397;77;21664;-74
2022/05/18 00:34:18;;;;;;;6.80;1.92;;;;;;;15.38;100.00;101447.43;1849021;76;21144;-74
2022/05/18 00:36:46;;;;;;;12.98;3.20;;;;;;;15.38;100.00;101444.84;1848081;76;21552;-74
2022/05/18 00:39:15;;;;;;;6.55;2.02;;;;;;;15.39;100.00;101446.55;1848271;78;21042;-74
2022/05/18 00:41:43;;;;;;;3.50;1.17;;;;;;;15.40;100.00;101452.19;1847497;78;21135;-74
2022/05/18 00:44:10;;;;;;;8.80;1.62;;;;;;;15.34;100.00;101451.78;1848264;76;21161;-77
2022/05/18 00:46:37;;;;;;;6.50;1.40;;;;;;;15.16;100.00;101455.73;1847846;78;21045;-74
2022/05/18 00:49:06;;;;;;;4.92;1.32;;;;;;;15.30;100.00;101461.72;1848137;78;21562;-74
2022/05/18 00:51:53;;;;;;;2.85;1.37;;;;;;;15.44;100.00;101463.38;1848298;76;21177;-74
2022/05/18 00:54:31;;;;;;;8.35;3.08;;;;;;;15.64;100.00;101457.23;1848295;78;21122;-74
2022/05/18 00:57:01;;;;;;;10.65;1.47;;;;;;;15.69;100.00;101456.33;1848456;78;21118;-75
2022/05/18 00:59:36;;;;;;;6.50;2.02;;;;;;;15.78;100.00;101450.24;1847996;78;21447;-75
2022/05/18 01:02:04;;;;;;;8.30;1.67;;;;;;;15.74;100.00;101444.66;1847544;76;21082;-75
2022/05/18 01:04:31;;;;;;;6.00;1.65;;;;;;;15.67;100.00;101437.79;1847942;78;21542;-75
2022/05/18 01:07:05;;;;;;;7.05;1.37;;;;;;;15.74;100.00;101440.31;1821668;76;21036;-75
2022/05/18 01:09:37;;;;;;;6.20;2.15;;;;;;;15.71;100.00;101444.67;1848339;78;21055;-74
2022/05/18 01:12:06;;;;;;;7.03;2.20;;;;;;;15.67;100.00;101445.11;1847978;76;21135;-74
2022/05/18 01:14:53;;;;;;;3.55;1.55;;;;;;;15.66;100.00;101448.57;1848068;77;21080;-74
2022/05/18 01:17:29;;;;;;;5.92;1.32;;;;;;;15.72;100.00;101441.20;1847961;76;21041;-74
2022/05/18 01:19:59;;;;;;;4.78;1.22;;;;;;;15.74;100.00;101442.06;1846980;76;21114;-74
2022/05/18 01:22:45;;;;;;;12.68;2.52;;;;;;;15.65;100.00;101446.86;1821421;77;21035;-74
2022/05/18 01:25:36;;;;;;;8.00;1.80;;;;;;;15.62;100.00;101449.47;1848395;76;21164;-74
2022/05/18 01:28:05;;;;;;;8.48;1.57;;;;;;;15.56;100.00;101450.36;1848278;77;21114;-74
2022/05/18 01:30:34;;;;;;;4.42;1.37;;;;;;;15.73;100.00;101442.48;1803698;78;21116;-74
2022/05/18 01:33:07;;;;;;;9.38;1.70;;;;;;;15.72;100.00;101448.97;1848082;76;21034;-74
2022/05/18 01:35:37;;;;;;;3.30;1.30;;;;;;;15.82;100.00;101441.58;1848186;78;21593;-74
2022/05/18 01:38:06;;;;;;;7.55;1.55;;;;;;;15.79;100.00;101448.06;1848262;76;21098;-74
2022/05/18 01:40:46;;;;;;;6.75;1.60;;;;;;;15.67;100.00;101450.74;1848432;78;21152;-74
2022/05/18 01:43:24;;;;;;;5.62;1.85;;;;;;;15.70;100.00;101450.27;1847900;76;21077;-75
2022/05/18 01:45:54;;;;;;;7.05;1.80;;;;;;;15.71;100.00;101448.10;1845891;78;21583;-74
2022/05/18 01:48:24;;;;;;;8.03;2.40;;;;;;;15.73;100.00;101451.98;1846892;77;21023;-74
2022/05/18 01:50:52;;;;;;;2.72;1.27;;;;;;;15.79;100.00;101431.23;1847772;76;21046;-74
2022/05/18 01:53:20;;;;;;;6.47;2.10;;;;;;;15.90;100.00;101422.08;1847078;76;21091;-75
2022/05/18 01:55:48;;;;;;;7.05;1.40;;;;;;;15.89;100.00;101434.61;1847255;76;21583;-74
2022/05/18 01:58:16;;;;;;;6.12;2.08;;;;;;;15.76;100.00;101430.37;1845982;78;21044;-74
2022/05/18 02:00:45;;;;;;;6.10;1.50;;;;;;;15.75;100.00;101442.48;1846052;78;21521;-74
2022/05/18 02:03:13;;;;;;;3.85;1.20;;;;;;;15.86;100.00;101433.33;1846609;78;21418;-74
2022/05/18 02:05:42;;;;;;;6.92;1.98;;;;;;;15.94;100.00;101422.47;1847567;77;21117;-74
2022/05/18 02:08:10;;;;;;;4.70;2.37;;;;;;;15.94;100.00;101414.70;1847198;78;21462;-74
2022/05/18 02:10:38;;;;;;;5.95;1.42;;;;;;;15.89;100.00;101425.55;1845957;78;21115;-75
2022/05/18 02:13:06;;;;;;;4.83;1.67;;;;;;;15.79;100.00;101434.23;1848467;78;21025;-75
2022/05/18 02:15:34;;;;;;;7.35;2.98;;;;;;;15.73;100.00;101426.08;1843487;76;21165;-75
2022/05/18 02:18:02;;;;;;;7.20;2.15;;;;;;;15.80;100.00;101413.93;1834398;77;21146;-75
2022/05/18 02:20:30;;;;;;;4.90;1.60;;;;;;;15.64;100.00;101425.72;1824308;77;21099;-75
2022/05/18 02:22:57;;;;;;;13.30;1.90;;;;;;;15.56;100.00;101421.00;1863786;75;21029;-75
2022/05/18 02:25:25;;;;;;;6.08;1.65;;;;;;;15.51;100.00;101420.17;1879140;75;21200;-75
2022/05/18 02:27:54;;;;;;;3.17;1.57;;;;;;;15.45;100.00;101421.94;1878488;76;21085;-75
2022/05/18 02:30:22;;;;;;;7.17;1.72;;;;;;;15.37;100.00;101424.13;1846297;76;21565;-74
2022/05/18 02:32:50;;;;;;;6.47;1.75;;;;;;;15.27;100.00;101429.38;1842306;76;21109;-75
2022/05/18 02:35:17;;;;;;;2.70;1.30;;;;;;;15.30;100.00;101420.72;1815400;78;21533;-75
2022/05/18 02:37:45;;;;;;;3.95;1.50;;;;;;;15.26;100.00;101419.02;1869723;75;21050;-75
2022/05/18 02:40:13;;;;;;;4.97;1.52;;;;;;;15.14;100.00;101419.50;1847039;76;21145;-75
2022/05/18 02:42:40;;;;;;;4.97;1.98;;;;;;;15.07;100.00;101416.50;1883327;74;21127;-75
2022/05/18 02:45:09;;;;;;;7.22;2.20;;;;;;;15.00;100.00;101414.80;1861453;75;21148;-75
2022/05/18 02:47:36;;;;;;;12.00;1.87;;;;;;;15.07;100.00;101415.21;1880909;75;21116;-75
2022/05/18 02:50:05;;;;;;;3.37;1.57;;;;;;;15.05;100.00;101407.91;1848503;77;21042;-74
2022/05/18 02:52:32;;;;;;;4.28;1.12;;;;;;;15.04;100.00;101413.92;1874151;74;21011;-75
2022/05/18 02:57:45;;;;;;;10.80;2.22;;;;;;;14.90;100.00;101408.80;1848645;76;21105;-74
2022/05/18 03:00:14;;;;;;;5.97;1.77;;;;;;;14.86;100.00;101397.61;1848402;77;21640;-74
2022/05/18 03:02:41;;;;;;;7.90;1.90;;;;;;;14.91;100.00;101400.20;1881502;75;21032;-75
2022/05/18 03:05:09;;;;;;;6.05;1.60;;;;;;;14.82;100.00;101419.19;1881319;76;21173;-75
2022/05/18 03:07:36;;;;;;;7.70;2.33;;;;;;;14.80;100.00;101410.59;1848481;78;21035;-75
2022/05/18 03:10:04;;;;;;;4.40;1.98;;;;;;;14.88;100.00;101415.30;1881348;76;21194;-75
2022/05/18 03:12:32;;;;;;;6.55;2.62;;;;;;;14.88;100.00;101412.72;1880115;74;21029;-75
2022/05/18 03:14:59;;;;;;;3.15;1.57;;;;;;;14.86;100.00;101420.02;1881344;74;21152;-75
2022/05/18 03:17:28;;;;;;;5.15;1.67;;;;;;;14.87;100.00;101422.61;1880723;74;21165;-75
2022/05/18 03:19:56;;;;;;;8.38;2.15;;;;;;;14.95;100.00;101429.07;1881066;74;21023;-75
2022/05/18 03:25:09;;;;;;;6.17;1.45;;;;;;;14.93;100.00;101424.32;1880779;75;21087;-75
2022/05/18 03:27:41;;;;;;;9.60;2.98;;;;;;;14.95;100.00;101421.31;1881020;74;21198;-75
2022/05/18 03:30:10;;;;;;;9.30;2.67;;;;;;;14.91;100.00;101423.03;1848426;76;21060;-75
2022/05/18 03:32:39;;;;;;;6.08;2.22;;;;;;;14.92;100.00;101422.19;1845529;76;21040;-75
2022/05/18 03:35:08;;;;;;;5.35;1.50;;;;;;;15.00;100.00;101424.73;1809177;77;21235;-75
2022/05/18 03:37:36;;;;;;;7.17;2.42;;;;;;;15.01;100.00;101425.61;1836272;76;21153;-75
2022/05/18 03:40:03;;;;;;;5.75;1.70;;;;;;;14.97;100.00;101423.44;1881556;74;21068;-75
2022/05/18 03:42:31;;;;;;;6.85;1.55;;;;;;;14.93;100.00;101433.37;1869186;75;21093;-75
2022/05/18 03:44:58;;;;;;;8.65;1.90;;;;;;;14.75;100.00;101429.95;1870604;74;21086;-75
2022/05/18 03:47:26;;;;;;;5.35;2.02;;;;;;;14.72;100.00;101436.42;1848286;76;21102;-75
2022/05/18 03:49:53;;;;;;;6.42;1.40;;;;;;;14.67;100.00;101434.30;1848628;76;21478;-75
2022/05/18 03:52:21;;;;;;;6.67;1.65;;;;;;;14.73;100.00;101430.83;1822770;76;21098;-75
2022/05/18 03:54:48;;;;;;;12.43;2.50;;;;;;;14.73;100.00;101429.09;1836736;77;21202;-75
2022/05/18 03:57:16;;;;;;;6.95;2.12;;;;;;;14.69;100.00;101430.83;1840469;76;21703;-75
2022/05/18 03:59:43;;;;;;;7.87;1.77;;;;;;;14.71;100.00;101435.55;1868612;76;21064;-75
2022/05/18 04:02:10;;;;;;;7.22;1.77;;;;;;;14.75;100.00;101428.66;1847508;76;21445;-75
2022/05/18 04:04:39;;;;;;;7.78;1.80;;;;;;;14.90;100.00;101443.73;1861459;75;21105;-75
2022/05/18 04:07:07;;;;;;;3.95;1.25;;;;;;;14.91;100.00;101443.73;1848539;76;21553;-75
2022/05/18 04:09:34;;;;;;;10.23;1.85;;;;;;;14.96;100.00;101445.89;1862957;75;21025;-75
2022/05/18 04:12:02;;;;;;;5.90;1.67;;;;;;;14.86;100.00;101440.30;1867648;76;21462;-75
2022/05/18 04:14:29;;;;;;;3.90;1.40;;;;;;;14.96;100.00;101435.54;1851534;76;21143;-75
2022/05/18 04:16:57;;;;;;;7.45;1.95;;;;;;;15.05;100.00;101444.13;1853527;76;21056;-75
2022/05/18 04:19:24;;;;;;;3.85;1.57;;;;;;;15.07;100.00;101435.49;1866331;76;21042;-75
2022/05/18 04:21:51;;;;;;;4.92;1.47;;;;;;;15.15;100.00;101440.63;1821649;76;21111;-75
2022/05/18 04:24:19;;;;;;;6.45;2.55;;;;;;;15.10;100.00;101439.80;1848518;76;21084;-75
2022/05/18 04:26:46;;;;;;;5.22;1.50;;;;;;;15.10;100.00;101444.97;1869929;76;21142;-75
2022/05/18 04:29:14;;;;;;;5.65;1.57;;;;;;;15.21;100.00;101446.21;1864422;75;21170;-75
2022/05/18 04:31:41;;;;;;;8.63;1.77;;;;;;;15.27;100.00;101450.50;1858839;75;21029;-75
2022/05/18 04:34:09;;;;;;;8.03;1.80;;;;;;;15.13;100.00;101452.73;1867618;76;21073;-75
2022/05/18 04:36:36;;;;;;;8.25;1.65;;;;;;;15.19;100.00;101455.27;1858977;75;21115;-75
2022/05/18 04:39:04;;;;;;;8.88;1.95;;;;;;;15.20;100.00;101445.38;1863506;76;21025;-75
2022/05/18 04:41:32;;;;;;;6.55;1.98;;;;;;;15.07;100.00;101443.68;1826846;76;21089;-75
2022/05/18 04:44:00;;;;;;;7.42;2.15;;;;;;;15.08;100.00;101437.66;1867422;75;21174;-75
2022/05/18 04:46:29;;;;;;;5.33;1.95;;;;;;;15.05;100.00;101452.73;1890649;74;21130;-75
2022/05/18 04:48:56;;;;;;;5.10;1.50;;;;;;;15.06;100.00;101451.02;1893695;76;21037;-75
2022/05/18 04:51:24;;;;;;;9.28;1.82;;;;;;;15.09;100.00;101448.43;1822377;77;21042;-75
2022/05/18 04:53:52;;;;;;;7.92;1.80;;;;;;;15.07;100.00;101456.61;1817767;79;21072;-75
2022/05/18 04:56:19;;;;;;;4.83;1.80;;;;;;;15.17;100.00;101450.55;1872104;76;21193;-75
2022/05/18 04:58:47;;;;;;;5.60;1.80;;;;;;;15.21;100.00;101447.08;1893791;76;21049;-75
2022/05/18 05:01:14;;;;;;;6.10;1.90;;;;;;;15.35;100.00;101444.85;1893540;76;21033;-75
2022/05/18 05:03:44;;;;;;;4.45;1.20;;;;;;;15.38;100.00;101450.44;1848267;76;21012;-75
2022/05/18 05:06:12;;;;;;;7.37;1.67;;;;;;;15.42;100.00;101445.67;1849497;77;21021;-75
2022/05/18 05:08:40;;;;;;;7.37;1.60;;;;;;;15.33;100.00;101446.61;1848989;76;21172;-75
2022/05/18 05:11:08;;;;;;;4.37;1.52;;;;;;;15.17;100.00;101444.50;1850874;76;21039;-75
2022/05/18 05:13:37;;;;;;;6.15;1.65;;;;;;;15.22;100.00;101444.08;1851500;76;21463;-75
2022/05/18 05:16:07;;;;;;;8.88;2.35;;;;;;;15.13;100.00;101446.67;1849392;77;21083;-75
2022/05/18 05:18:35;;;;;;;3.52;1.02;;;;;;;15.01;100.00;101446.30;1849419;76;21486;-75
2022/05/18 05:21:03;;;;;;;4.45;1.77;;;;;;;15.06;100.00;101444.55;1848640;77;21060;-75
2022/05/18 05:23:32;;;;;;;7.95;1.98;;;;;;;15.04;100.00;101450.15;1848839;77;21017;-75
2022/05/18 05:26:00;;;;;;;7.67;1.65;;;;;;;15.03;100.00;101448.02;1848988;76;21622;-75
2022/05/18 05:28:28;;;;;;;7.62;1.52;;;;;;;15.11;100.00;101457.48;1823252;78;21125;-75
2022/05/18 05:30:57;;;;;;;6.90;1.80;;;;;;;15.12;100.00;101458.78;1849118;76;21060;-75
2022/05/18 05:33:25;;;;;;;7.47;1.32;;;;;;;15.07;100.00;101454.03;1847203;76;21550;-75
2022/05/18 05:35:52;;;;;;;3.92;1.70;;;;;;;14.99;100.00;101451.91;1849310;76;21131;-75
2022/05/18 05:38:19;;;;;;;6.40;1.85;;;;;;;14.98;100.00;101459.25;1856453;77;21339;-76
2022/05/18 05:40:47;;;;;;;5.40;1.45;;;;;;;15.03;100.00;101463.97;1901632;74;21034;-76
2022/05/18 05:43:15;;;;;;;10.28;1.75;;;;;;;15.03;100.00;101458.37;1906237;74;21099;-76
2022/05/18 05:45:42;;;;;;;3.08;1.87;;;;;;;14.92;100.00;101461.00;1890602;74;21494;-76
2022/05/18 05:48:10;;;;;;;7.35;2.65;;;;;;;15.04;100.00;101455.33;1893259;74;21084;-76
2022/05/18 05:50:38;;;;;;;6.10;1.65;;;;;;;15.12;100.00;101456.61;1891780;74;21033;-76
2022/05/18 05:53:05;;;;;;;6.80;2.30;;;;;;;15.27;100.00;101465.61;1848939;76;21037;-76
2022/05/18 05:55:35;;;;;;;6.35;1.77;;;;;;;15.43;100.00;101468.13;1880301;75;21167;-76
2022/05/18 05:58:02;;;;;;;7.50;2.22;;;;;;;15.42;100.00;101462.08;1848502;77;21114;-76
2022/05/18 06:00:30;;;;;;;5.97;1.80;;;;;;;15.65;100.00;101457.22;1813269;79;21189;-76
2022/05/18 06:02:57;;;;;;;12.45;2.70;;;;;;;15.68;100.00;101451.16;1847745;77;21021;-76
2022/05/18 06:05:25;;;;;;;9.05;2.33;;;;;;;15.53;100.00;101466.36;1847480;76;21641;-77
2022/05/18 06:07:52;;;;;;;5.58;1.90;;;;;;;15.55;100.00;101465.48;1847947;76;21535;-76
2022/05/18 06:10:21;;;;;;;9.45;2.72;;;;;;;15.52;100.00;101460.31;1848078;78;21037;-76
2022/05/18 06:12:49;;;;;;;8.45;2.58;;;;;;;15.60;100.00;101457.69;1847023;76;21118;-76
2022/05/18 06:15:16;;;;;;;8.18;1.90;;;;;;;15.67;100.00;101458.05;1848356;77;21661;-77
2022/05/18 06:17:44;;;;;;;7.83;2.17;;;;;;;15.71;100.00;101456.33;1845891;77;21057;-76
2022/05/18 06:20:15;;;;;;;17.77;3.58;;;;;;;15.95;100.00;101455.31;1846938;77;21126;-76
2022/05/18 06:22:42;;;;;;;5.33;2.27;;;;;;;15.85;100.00;101457.53;1833984;76;22284;-77
2022/05/18 06:25:12;;;;;;;15.08;3.20;;;;;;;15.96;100.00;101460.95;1842622;76;21079;-76
2022/05/18 06:27:41;;;;;;;6.05;1.92;;;;;;;16.11;100.00;101466.86;1847642;77;21143;-76
2022/05/18 06:30:10;;;;;;;7.60;2.35;;;;;;;16.38;100.00;101454.55;1846999;76;21707;-76
2022/05/18 06:32:38;;;;;;;8.70;2.17;;;;;;;16.42;100.00;101449.75;1828195;78;21096;-76
2022/05/18 06:35:06;;;;;;;11.05;2.72;;;;;;;16.44;100.00;101449.31;1845348;76;21221;-76
2022/05/18 06:37:33;;;;;;;12.50;3.15;;;;;;;16.47;100.00;101449.27;1849754;76;21166;-76
2022/05/18 06:40:04;;;;;;;12.18;2.90;;;;;;;16.34;100.00;101443.78;1849174;76;21173;-76
2022/05/18 06:42:32;;;;;;;10.10;2.72;;;;;;;16.33;100.00;101442.07;1844525;76;21040;-75
2022/05/18 06:44:59;;;;;;;15.25;3.92;;;;;;;16.57;100.00;101453.09;1817593;77;21626;-76
2022/05/18 06:47:27;;;;;;;11.55;2.47;;;;;;;16.50;100.00;101449.24;1854779;76;21145;-76
2022/05/18 06:49:55;;;;;;;8.75;3.02;;;;;;;16.57;100.00;101451.79;1846416;76;21058;-76
2022/05/18 06:52:22;;;;;;;14.20;2.65;;;;;;;16.68;100.00;101443.47;1859508;76;21147;-75
2022/05/18 06:54:51;;;;;;;13.15;4.03;;;;;;;16.65;100.00;101435.70;1847617;78;21073;-75
2022/05/18 06:57:18;;;;;;;16.45;3.25;;;;;;;16.73;100.00;101444.69;1847418;76;21208;-75
2022/05/18 06:59:46;;;;;;;10.38;3.00;;;;;;;16.81;100.00;101442.87;1848060;78;21033;-75
2022/05/18 07:02:13;;;;;;;8.20;3.50;;;;;;;16.90;100.00;101441.91;1844010;76;21089;-76
2022/05/18 07:04:41;;;;;;;8.23;2.25;;;;;;;16.74;100.00;101448.56;1846628;77;21092;-75
2022/05/18 07:07:08;;;;;;;6.90;2.60;;;;;;;16.68;100.00;101449.08;1847658;76;21078;-76
2022/05/18 07:09:36;;;;;;;9.75;4.20;;;;;;;16.90;100.00;101440.62;1847973;76;21113;-76
2022/05/18 07:12:04;;;;;;;9.45;2.58;;;;;;;16.97;100.00;101439.67;1846503;77;21084;-76
2022/05/18 07:14:33;;;;;;;13.65;3.45;;;;;;;16.82;100.00;101432.06;1849937;77;21086;-75
2022/05/18 07:17:00;;;;;;;15.68;3.60;;;;;;;16.79;100.00;101429.06;1848838;77;21107;-75
2022/05/18 07:19:30;;;;;;;15.55;2.98;;;;;;;16.89;100.00;101436.31;1848708;76;21127;-76
2022/05/18 07:21:57;;;;;;;9.45;3.12;;;;;;;16.81;100.00;101441.57;1846539;77;21257;-76
2022/05/18 07:24:24;;;;;;;10.10;2.70;;;;;;;16.83;100.00;101437.66;1847619;76;21165;-76
2022/05/18 07:26:52;;;;;;;10.53;2.37;;;;;;;16.89;100.00;101437.61;1848103;76;21145;-76
2022/05/18 07:29:19;;;;;;;11.80;2.35;;;;;;;17.06;100.00;101436.15;1848122;77;21111;-75
2022/05/18 07:34:25;;;;;;;7.92;2.85;;;;;;;17.24;100.00;101424.66;1804304;78;21240;-76
2022/05/18 07:36:54;;;;;;;10.25;3.60;;;;;;;17.05;100.00;101422.73;1848121;77;21134;-76
2022/05/18 07:39:23;;;;;;;6.10;2.75;;;;;;;17.32;100.00;101413.30;1848108;77;21114;-75
2022/05/18 07:41:51;;;;;;;9.35;3.00;;;;;;;17.47;100.00;101409.18;1847462;77;21543;-76
2022/05/18 07:44:19;;;;;;;7.22;2.35;;;;;;;17.54;100.00;101425.11;1846591;76;21092;-76
2022/05/18 07:46:47;;;;;;;13.30;2.72;;;;;;;17.59;100.00;101428.07;1853864;76;21243;-76
2022/05/18 07:49:15;;;;;;;8.65;2.50;;;;;;;17.52;100.00;101426.88;1842038;78;21150;-76
2022/05/18 07:51:45;;;;;;;10.60;2.75;;;;;;;17.56;100.00;101428.11;1820258;77;21075;-76
2022/05/18 07:54:13;;;;;;;12.50;3.35;;;;;;;17.63;100.00;101417.63;1847717;77;21163;-76
2022/05/18 07:56:43;;;;;;;9.20;2.58;;;;;;;17.88;100.00;101422.44;1848076;78;22231;-76
2022/05/18 07:59:14;;;;;;;12.93;2.98;;;;;;;17.79;100.00;101413.03;1847878;77;21027;-76
2022/05/18 08:01:43;;;;;;;11.30;2.75;;;;;;;18.09;100.00;101413.89;1847351;76;21160;-76
2022/05/18 08:04:11;;;;;;;5.92;1.92;;;;;;;18.31;100.00;101409.63;1847444;76;21738;-76
2022/05/18 08:06:40;;;;;;;8.60;2.37;;;;;;;18.66;100.00;101407.24;1846624;78;21000;-76
2022/05/18 08:09:09;;;;;;;8.85;3.30;;;;;;;18.90;100.00;101407.17;1820506;78;21109;-76
2022/05/18 08:17:07;;;;;;;17.70;2.87;;;;;;;18.99;100.00;101391.81;1847782;76;21129;-74
2022/05/18 08:19:34;;;;;;;8.15;2.62;;;;;;;19.07;100.00;101391.23;1847858;77;21142;-74
2022/05/18 08:22:02;;;;;;;11.60;3.02;;;;;;;19.23;100.00;101405.23;1888858;74;21029;-75
2022/05/18 08:24:29;;;;;;;15.43;5.42;;;;;;;18.97;100.00;101399.25;1815773;77;21096;-75
2022/05/18 08:26:57;;;;;;;15.83;2.62;;;;;;;19.03;100.00;101397.36;1879587;74;21112;-74
2022/05/18 08:29:24;;;;;;;11.50;4.05;;;;;;;19.14;100.00;101408.05;1847534;76;21760;-74
2022/05/18 08:31:52;;;;;;;6.95;2.90;;;;;;;19.12;100.00;101409.81;1880821;74;21098;-74
2022/05/18 08:34:19;;;;;;;12.58;3.83;;;;;;;18.99;100.00;101414.41;1881100;74;21250;-75
2022/05/18 08:36:47;;;;;;;15.18;2.70;;;;;;;18.94;100.00;101413.19;1852455;76;21046;-74
2022/05/18 08:39:14;;;;;;;11.05;3.72;;;;;;;19.01;100.00;101410.88;1880785;74;21053;-75
2022/05/18 08:41:45;;;;;;;14.53;4.72;;;;;;;18.86;100.00;101422.91;1854489;76;21061;-74
2022/05/18 08:44:22;;;;;;;10.23;2.60;;;;;;;18.70;100.00;101419.30;1880820;75;21096;-75
2022/05/18 08:46:55;;;;;;;14.65;3.92;;;;;;;18.53;100.00;101416.59;1838494;76;21108;-79
2022/05/18 08:49:43;;;;;;;11.08;3.98;;;;;;;18.67;100.00;101407.65;1816587;77;21153;-74
2022/05/18 08:52:20;;;;;;;9.43;3.30;;;;;;;18.23;100.00;101397.20;1849129;76;21037;-74
2022/05/18 08:55:24;;;;;;;8.98;2.98;;;;;;;18.55;100.00;101399.19;1873629;74;21165;-74
2022/05/18 08:57:53;;;;;;;11.15;3.22;;;;;;;18.74;100.00;101394.06;1884106;74;21077;-74
2022/05/18 09:00:23;;;;;;;11.22;2.83;;;;;;;18.83;100.00;101396.03;1871925;76;21061;-74
2022/05/18 09:02:54;;;;;;;8.83;2.55;;;;;;;18.62;100.00;101389.97;1892539;74;21071;-74
2022/05/18 09:05:37;;;;;;;11.43;3.22;;;;;;;18.62;100.00;101389.97;1855657;76;21156;-74
2022/05/18 09:08:16;;;;;;;14.70;3.00;;;;;;;18.87;100.00;101393.37;1893525;74;21132;-74
2022/05/18 09:11:17;;;;;;;7.92;2.45;;;;;;;18.85;100.00;101383.45;1826223;78;21449;-74
2022/05/18 09:13:44;;;;;;;9.55;2.25;;;;;;;18.91;100.00;101379.41;1822239;76;21044;-74
2022/05/18 09:16:30;;;;;;;4.70;2.00;;;;;;;18.91;100.00;101378.10;1852653;75;21466;-74
2022/05/18 09:19:13;;;;;;;15.35;2.67;;;;;;;19.29;100.00;101371.67;1880289;74;21029;-74
2022/05/18 09:21:52;;;;;;;14.07;2.85;;;;;;;19.11;100.00;101376.84;1880495;76;21111;-74
2022/05/18 09:24:40;;;;;;;11.12;2.37;;;;;;;19.48;100.00;101374.70;1879566;76;21082;-74
2022/05/18 09:27:23;;;;;;;7.37;2.10;;;;;;;19.45;100.00;101371.72;1822029;77;21014;-75
2022/05/18 09:30:14;;;;;;;13.75;2.77;;;;;;;19.48;100.00;101377.30;1891214;76;21070;-75
2022/05/18 09:32:50;;;;;;;7.15;2.30;;;;;;;19.54;100.00;101377.17;1843231;76;21037;-75
2022/05/18 09:35:20;;;;;;;7.15;2.20;;;;;;;19.21;100.00;101367.48;1847576;76;21077;-75
2022/05/18 09:38:00;;;;;;;8.70;2.02;;;;;;;19.61;100.00;101371.36;1848105;76;21042;-74
2022/05/18 09:40:36;;;;;;;10.30;2.92;;;;;;;19.71;100.00;101374.16;1892437;74;21045;-74
2022/05/18 09:43:10;;;;;;;8.98;1.98;;;;;;;20.04;100.00;101362.09;1893039;74;21475;-74
2022/05/18 09:45:40;;;;;;;6.58;2.42;;;;;;;19.87;100.00;101364.66;1891356;74;21132;-74
2022/05/18 09:48:13;;;;;;;9.88;2.08;;;;;;;19.65;100.00;101369.09;1893919;74;21053;-74
2022/05/18 09:50:42;;;;;;;11.10;1.80;;;;;;;19.54;100.00;101363.27;1893201;74;21124;-74
2022/05/18 09:53:10;;;;;;;8.75;1.92;;;;;;;19.18;100.00;101358.47;1892593;74;21046;-74
2022/05/18 09:55:38;;;;;;;10.82;2.55;;;;;;;19.32;100.00;101350.33;1892699;74;21137;-74
2022/05/18 09:58:27;;;;;;;7.50;2.22;;;;;;;19.32;100.00;101350.33;1893024;76;21023;-74
2022/05/18 10:07:27;;;;;;;4.75;2.05;;;;;;;19.54;100.00;101350.24;1848511;76;21114;-74
2022/05/18 10:09:00;;;;;;;6.55;1.57;;;;;;;19.73;100.00;101338.47;1848586;77;21060;-74
2022/05/18 10:11:33;;;;;;;10.43;2.00;;;;;;;20.04;100.00;101347.28;1856022;76;21011;-76
2022/05/18 10:14:19;;;;;;;8.93;2.87;;;;;;;19.92;100.00;101339.31;1847407;76;21099;-75
2022/05/18 10:17:05;;;;;;;8.10;2.45;;;;;;;19.78;100.00;101340.97;1886741;74;21102;-75
2022/05/18 10:19:38;;;;;;;5.70;2.30;;;;;;;19.65;100.00;101333.06;1848541;76;21223;-76
2022/05/18 10:22:07;;;;;;;10.10;2.83;;;;;;;19.68;100.00;101323.84;1818001;77;21068;-75
2022/05/18 10:24:37;;;;;;;10.72;3.25;;;;;;;19.82;100.00;101321.75;1891697;76;21156;-75
2022/05/18 10:27:19;;;;;;;8.75;1.92;;;;;;;19.90;100.00;101303.75;1822481;76;21547;-76
2022/05/18 10:30:17;;;;;;;6.00;1.95;;;;;;;19.90;100.00;101303.75;1892747;74;21045;-76
2022/05/18 10:33:02;;;;;;;8.05;2.12;;;;;;;20.22;100.00;101300.27;1846750;77;21453;-75
2022/05/18 10:35:34;;;;;;;8.00;2.30;;;;;;;20.49;100.00;101296.94;1872518;74;21509;-76
2022/05/18 10:38:03;;;;;;;8.18;2.83;;;;;;;20.61;100.00;101305.72;1891708;74;21097;-76
2022/05/18 10:40:31;;;;;;;5.10;1.72;;;;;;;20.87;100.00;101296.22;1853743;76;21132;-75
2022/05/18 10:43:18;;;;;;;7.72;2.12;;;;;;;20.95;100.00;101298.65;1885585;74;21127;-76
2022/05/18 10:45:48;;;;;;;6.40;1.57;;;;;;;20.84;100.00;101281.95;1893057;76;21065;-76
2022/05/18 10:48:18;;;;;;;11.75;2.35;;;;;;;20.68;100.00;101292.02;1849867;76;21546;-75
2022/05/18 10:50:46;;;;;;;6.62;2.15;;;;;;;20.68;100.00;101292.02;1795131;77;21555;-76
2022/05/18 10:53:19;;;;;;;7.83;2.00;;;;;;;20.81;100.00;101282.51;1853554;76;21604;-76
2022/05/18 10:56:03;;;;;;;9.13;1.87;;;;;;;20.83;100.00;101276.33;1870068;74;21093;-75
2022/05/18 10:58:46;;;;;;;8.70;1.72;;;;;;;21.08;100.00;101282.11;1828584;77;21083;-76
2022/05/18 11:01:24;;;;;;;4.78;1.40;;;;;;;21.40;100.00;101283.29;1827737;78;21506;-76
2022/05/18 11:04:10;;;;;;;7.67;2.10;;;;;;;21.64;100.00;101274.22;1859579;75;21011;-76
2022/05/18 11:06:40;;;;;;;7.45;1.65;;;;;;;21.64;100.00;101274.22;1861097;75;21208;-75
2022/05/18 11:09:19;;;;;;;5.65;1.60;;;;;;;21.91;100.00;101279.42;1858243;75;21043;-76
2022/05/18 11:11:50;;;;;;;8.33;3.20;;;;;;;21.58;100.00;101270.49;1837355;75;21040;-76
2022/05/18 11:14:23;;;;;;;8.65;1.92;;;;;;;21.97;100.00;101271.34;1853651;75;21158;-76
2022/05/18 11:16:59;;;;;;;4.05;1.40;;;;;;;21.84;100.00;101264.85;1858405;77;20984;-76
2022/05/18 11:20:03;;;;;;;6.00;1.55;;;;;;;22.03;100.00;101260.67;1856773;75;21034;-76
2022/05/18 11:22:36;;;;;;;5.22;1.25;;;;;;;22.36;100.00;101257.31;1840917;77;21098;-75
2022/05/18 11:25:26;;;;;;;4.20;1.57;;;;;;;22.70;100.00;101242.09;1860034;75;21135;-76
2022/05/18 11:28:29;;;;;;;6.20;1.47;;;;;;;22.51;100.00;101243.64;1859431;77;21060;-76
2022/05/18 11:31:20;;;;;;;5.00;1.50;;;;;;;22.45;100.00;101241.69;1859037;75;21008;-76
2022/05/18 11:33:53;;;;;;;6.75;2.33;;;;;;;21.64;100.00;101249.38;1842995;77;21027;-76
2022/05/18 11:36:26;;;;;;;5.10;1.40;;;;;;;21.80;100.00;101243.17;1851392;76;21519;-76
2022/05/18 11:38:58;;;;;;;;;;;;;;;21.92;100.00;101241.89;1861588;77;21021;-76
2022/05/18 11:41:41;;;;;;;7.05;2.17;;;;;;;22.22;100.00;101242.96;1858415;75;20124;-76
2022/05/18 11:44:32;;;;;;;4.30;0.98;;;;;;;21.70;100.00;101241.30;1858634;77;21079;-76
2022/05/18 11:47:15;;;;;;;7.83;1.30;;;;;;;21.71;100.00;101236.50;1841310;76;21082;-75
2022/05/18 11:49:54;;;;;;;4.45;1.27;;;;;;;22.08;100.00;101232.17;1801899;78;21098;-76
2022/05/18 11:52:45;;;;;;;4.20;1.22;;;;;;;21.64;100.00;101231.91;1847243;78;21053;-76
2022/05/18 11:55:20;;;;;;;5.15;1.40;;;;;;;21.33;100.00;101222.54;1846591;76;21229;-76